Time;durP1;ratioP1;P1;durP2;ratioP2;P2;SDS_P1;SDS_P2;PMS_P1;PMS_P2;Temp;Humidity;BMP_temperature;BMP_pressure;BME280_temperature;BME280_humidity;BME280_pressure;Samples;Min_cycle;Max_cycle;Signal;HPM_P1;HPM_P2
2022/02/01 00:01:02;;;;;;;25.90;10.60;;;3.00;99.90;;;;;;5066657;28;20185;-55
2022/02/01 00:03:33;;;;;;;23.30;10.02;;;3.00;99.90;;;;;;5065787;28;20268;-58
2022/02/01 00:08:39;;;;;;;27.50;10.50;;;3.00;99.90;;;;;;5053898;28;20178;-56
2022/02/01 00:11:24;;;;;;;24.88;10.98;;;3.00;99.90;;;;;;5052190;28;20528;-62
2022/02/01 00:14:12;;;;;;;19.83;9.63;;;3.00;99.90;;;;;;5056036;28;20170;-61
2022/02/01 00:19:51;;;;;;;27.15;11.27;;;2.90;99.90;;;;;;5051994;28;20671;-55
2022/02/01 00:33:36;;;;;;;22.90;10.98;;;2.90;99.90;;;;;;5054376;28;20561;-57
2022/02/01 00:36:05;;;;;;;21.88;11.93;;;2.90;99.90;;;;;;5056864;28;20201;-58
2022/02/01 00:38:40;;;;;;;20.30;11.38;;;2.90;99.90;;;;;;5061365;28;20248;-56
2022/02/01 00:41:07;;;;;;;24.55;12.77;;;2.90;99.90;;;;;;5069947;28;20268;-58
2022/02/01 00:43:33;;;;;;;21.70;11.60;;;2.90;99.90;;;;;;5059153;28;20623;-57
2022/02/01 00:46:02;;;;;;;28.47;13.33;;;2.80;99.90;;;;;;5069792;28;20197;-55
2022/02/01 00:48:28;;;;;;;30.35;13.60;;;2.80;99.90;;;;;;5063058;28;20181;-57
2022/02/01 00:50:54;;;;;;;23.98;13.05;;;2.80;99.90;;;;;;5056377;28;20562;-57
2022/02/01 00:53:27;;;;;;;21.07;12.20;;;2.80;99.90;;;;;;5063341;28;20233;-60
2022/02/01 00:55:54;;;;;;;24.38;12.77;;;2.80;99.90;;;;;;5053272;28;20885;-56
2022/02/01 00:58:20;;;;;;;29.95;12.82;;;2.80;99.90;;;;;;5051836;28;20181;-58
2022/02/01 01:00:46;;;;;;;17.90;12.43;;;2.90;99.90;;;;;;5051787;28;20593;-58
2022/02/01 01:03:11;;;;;;;23.60;13.57;;;2.90;99.90;;;;;;5051561;28;20250;-58
2022/02/01 01:05:37;;;;;;;26.43;13.47;;;2.90;99.90;;;;;;5050634;28;20220;-58
2022/02/01 01:08:03;;;;;;;24.53;13.17;;;2.90;99.90;;;;;;5050972;28;20201;-58
2022/02/01 01:10:28;;;;;;;25.80;13.47;;;2.90;99.90;;;;;;5050952;28;20171;-58
2022/02/01 01:13:06;;;;;;;27.67;12.87;;;2.90;99.90;;;;;;5051007;28;20440;-57
2022/02/01 01:15:34;;;;;;;25.38;12.80;;;2.90;99.90;;;;;;5051294;28;20171;-55
2022/02/01 01:45:00;;;;;;;25.45;13.40;;;2.90;99.90;;;;;;5050717;28;20197;-56
2022/02/01 01:53:11;;;;;;;33.78;14.95;;;2.80;99.90;;;;;;5048498;28;20245;-58
2022/02/01 01:55:47;;;;;;;29.35;11.93;;;2.80;99.90;;;;;;5052877;28;20613;-55
2022/02/01 01:58:13;;;;;;;30.52;13.23;;;2.80;99.90;;;;;;5050322;28;20227;-56
2022/02/01 02:03:09;;;;;;;31.02;12.75;;;2.70;99.90;;;;;;5062194;28;20421;-54
2022/02/01 02:05:35;;;;;;;26.23;11.60;;;2.70;99.90;;;;;;5049652;28;20236;-54
2022/02/01 02:08:01;;;;;;;23.63;12.60;;;2.70;99.90;;;;;;5050448;28;20210;-56
2022/02/01 02:10:31;;;;;;;23.75;12.48;;;2.70;99.90;;;;;;5049877;28;20182;-57
2022/02/01 02:15:59;;;;;;;24.63;13.05;;;2.70;99.90;;;;;;5047617;28;20187;-55
2022/02/01 02:18:32;;;;;;;25.60;13.15;;;2.80;99.90;;;;;;5056681;28;20218;-56
2022/02/01 02:20:59;;;;;;;23.50;12.20;;;2.80;99.90;;;;;;5063628;28;20633;-57
2022/02/01 02:23:25;;;;;;;21.45;12.70;;;2.80;99.90;;;;;;5057462;28;20188;-57
2022/02/01 02:25:52;;;;;;;25.60;11.93;;;2.80;99.90;;;;;;5048928;28;20884;-56
2022/02/01 02:28:18;;;;;;;20.13;10.20;;;2.80;99.90;;;;;;5048336;28;21000;-54
2022/02/01 02:30:46;;;;;;;26.52;12.68;;;2.80;99.90;;;;;;5052957;28;20297;-56
2022/02/01 02:33:15;;;;;;;24.60;12.63;;;2.90;99.90;;;;;;5050312;28;20295;-57
2022/02/01 02:36:07;;;;;;;22.42;11.02;;;2.80;99.90;;;;;;5059566;28;20263;-56
2022/02/01 02:41:21;;;;;;;22.25;11.45;;;2.80;99.90;;;;;;5052987;28;20228;-57
2022/02/01 02:46:32;;;;;;;24.98;11.75;;;2.80;99.90;;;;;;5056898;28;20251;-58
2022/02/01 02:48:58;;;;;;;31.07;12.07;;;2.80;99.90;;;;;;5062449;28;20186;-57
2022/02/01 02:51:24;;;;;;;26.83;11.13;;;2.80;99.90;;;;;;5052568;28;20190;-56
2022/02/01 02:53:49;;;;;;;25.83;11.37;;;2.80;99.90;;;;;;5049007;28;20229;-52
2022/02/01 02:56:15;;;;;;;23.63;11.50;;;2.80;99.90;;;;;;5049545;28;20460;-56
2022/02/01 02:58:41;;;;;;;25.33;10.50;;;2.80;99.90;;;;;;5048393;28;20182;-57
2022/02/01 03:01:06;;;;;;;23.80;11.27;;;2.80;99.90;;;;;;5049383;28;20183;-58
2022/02/01 03:03:32;;;;;;;27.13;10.90;;;2.70;99.90;;;;;;5048696;28;20181;-54
2022/02/01 03:05:58;;;;;;;22.63;11.40;;;2.70;99.90;;;;;;5048389;28;20219;-57
2022/02/01 03:08:24;;;;;;;21.50;10.17;;;2.70;99.90;;;;;;5049186;28;20201;-57
2022/02/01 03:10:50;;;;;;;23.90;10.95;;;2.70;99.90;;;;;;5049456;28;20186;-55
2022/02/01 03:13:22;;;;;;;21.80;9.40;;;2.80;99.90;;;;;;5049918;28;20175;-53
2022/02/01 03:15:57;;;;;;;20.00;9.77;;;2.80;99.90;;;;;;5048510;28;20282;-57
2022/02/01 03:21:07;;;;;;;21.50;10.02;;;2.80;99.90;;;;;;5049742;28;20205;-54
2022/02/01 03:23:32;;;;;;;16.50;7.80;;;2.70;99.90;;;;;;5045579;28;20226;-58
2022/02/01 03:25:58;;;;;;;16.23;8.70;;;2.80;99.90;;;;;;5041189;28;20198;-54
2022/02/01 03:28:23;;;;;;;20.07;9.30;;;2.80;99.90;;;;;;5038115;28;20203;-57
2022/02/01 03:30:49;;;;;;;17.67;8.90;;;2.80;99.90;;;;;;5043639;28;20633;-56
2022/02/01 03:33:14;;;;;;;16.07;8.30;;;2.80;99.90;;;;;;5049448;28;20178;-57
2022/02/01 03:35:40;;;;;;;19.40;8.77;;;2.80;99.90;;;;;;5049458;28;20664;-55
2022/02/01 03:38:06;;;;;;;15.07;8.50;;;2.80;99.90;;;;;;5050577;28;20185;-58
2022/02/01 03:40:31;;;;;;;18.87;9.57;;;2.80;99.90;;;;;;5057341;28;20205;-58
2022/02/01 03:42:57;;;;;;;12.73;8.93;;;2.80;99.90;;;;;;5051402;28;20186;-54
2022/02/01 03:45:22;;;;;;;17.00;9.17;;;2.80;99.90;;;;;;5058835;28;20213;-57
2022/02/01 03:47:48;;;;;;;13.67;8.30;;;2.80;99.90;;;;;;5053171;28;20684;-57
2022/02/01 03:50:13;;;;;;;16.47;8.33;;;2.80;99.90;;;;;;5066365;28;20178;-55
2022/02/01 03:52:39;;;;;;;16.47;9.17;;;2.80;99.90;;;;;;5059844;28;20222;-57
2022/02/01 03:55:05;;;;;;;17.00;9.20;;;2.70;99.90;;;;;;5059999;28;20213;-55
2022/02/01 03:57:31;;;;;;;16.42;9.13;;;2.80;99.90;;;;;;5055626;28;20194;-53
2022/02/01 03:59:56;;;;;;;18.57;10.23;;;2.80;99.90;;;;;;5052705;28;20251;-56
2022/02/01 04:02:22;;;;;;;17.43;10.13;;;2.80;99.90;;;;;;5051731;28;20182;-56
2022/02/01 04:04:53;;;;;;;21.35;11.35;;;2.80;99.90;;;;;;5052343;28;20209;-57
2022/02/01 04:07:20;;;;;;;15.57;9.20;;;2.80;99.90;;;;;;5051039;28;20570;-58
2022/02/01 04:09:46;;;;;;;14.88;9.38;;;2.80;99.90;;;;;;5063254;28;20287;-56
2022/02/01 04:12:12;;;;;;;18.27;10.45;;;2.80;99.90;;;;;;5058106;28;20236;-55
2022/02/01 04:14:37;;;;;;;18.53;10.60;;;2.80;99.90;;;;;;5051698;28;20178;-59
2022/02/01 04:17:08;;;;;;;19.50;11.00;;;2.80;99.90;;;;;;5056390;28;20274;-57
2022/02/01 04:19:34;;;;;;;18.92;10.52;;;2.80;99.90;;;;;;5061298;28;20454;-58
2022/02/01 04:22:01;;;;;;;20.25;11.23;;;2.80;99.90;;;;;;5072476;28;20268;-56
2022/02/01 04:24:38;;;;;;;19.55;10.95;;;2.80;99.90;;;;;;5071091;28;20239;-55
2022/02/01 04:27:06;;;;;;;22.73;10.90;;;2.80;99.90;;;;;;5052543;28;20202;-56
2022/02/01 04:29:33;;;;;;;22.02;10.90;;;2.80;99.90;;;;;;5056261;28;20217;-56
2022/02/01 04:31:59;;;;;;;23.17;12.10;;;2.80;99.90;;;;;;5060465;28;20174;-55
2022/02/01 04:34:24;;;;;;;21.83;13.30;;;2.90;99.90;;;;;;5061656;28;20204;-54
2022/02/01 04:36:50;;;;;;;26.77;13.03;;;2.90;99.90;;;;;;5052633;28;20202;-56
2022/02/01 04:39:17;;;;;;;26.43;12.27;;;2.80;99.90;;;;;;5056339;28;20704;-57
2022/02/01 04:41:43;;;;;;;21.92;13.40;;;2.80;99.90;;;;;;5050652;28;20190;-58
2022/02/01 04:44:09;;;;;;;25.83;12.30;;;2.80;99.90;;;;;;5053061;28;20898;-55
2022/02/01 04:46:34;;;;;;;18.97;12.50;;;2.80;99.90;;;;;;5072145;28;20485;-56
2022/02/01 04:49:05;;;;;;;20.20;11.87;;;2.70;99.90;;;;;;5055943;28;20190;-58
2022/02/01 04:51:30;;;;;;;20.23;12.18;;;2.80;99.90;;;;;;5048337;28;20182;-57
2022/02/01 04:53:57;;;;;;;23.63;12.47;;;2.80;99.90;;;;;;5061866;28;20228;-56
2022/02/01 04:56:23;;;;;;;25.77;12.90;;;2.80;99.90;;;;;;5049916;28;20197;-55
2022/02/01 04:58:48;;;;;;;24.67;12.27;;;2.80;99.90;;;;;;5062428;28;20174;-55
2022/02/01 05:01:14;;;;;;;21.83;12.00;;;2.80;99.90;;;;;;5053774;28;20179;-52
2022/02/01 05:03:41;;;;;;;24.13;12.27;;;2.90;99.90;;;;;;5060367;28;20624;-56
2022/02/01 05:06:08;;;;;;;19.70;12.45;;;2.90;99.90;;;;;;5062411;28;20182;-53
2022/02/01 05:08:33;;;;;;;24.20;12.27;;;2.90;99.90;;;;;;5056057;28;20205;-53
2022/02/01 05:10:59;;;;;;;20.00;12.40;;;2.90;99.90;;;;;;5054395;28;21815;-60
2022/02/01 05:16:06;;;;;;;23.52;12.18;;;2.90;99.90;;;;;;5064950;28;20265;-55
2022/02/01 05:18:44;;;;;;;20.95;11.77;;;3.00;99.90;;;;;;5050131;28;20205;-53
2022/02/01 05:21:13;;;;;;;22.85;12.35;;;3.00;99.90;;;;;;5042249;28;20170;-55
2022/02/01 05:23:39;;;;;;;26.35;13.15;;;2.90;99.90;;;;;;5042964;28;20186;-55
2022/02/01 05:26:05;;;;;;;21.40;12.93;;;2.90;99.90;;;;;;5049375;28;21199;-55
2022/02/01 05:28:31;;;;;;;18.90;10.70;;;2.90;99.90;;;;;;5044939;28;20221;-58
2022/02/01 05:31:02;;;;;;;17.97;11.83;;;3.00;99.90;;;;;;5057482;28;20599;-54
2022/02/01 05:33:36;;;;;;;19.58;11.10;;;2.80;99.90;;;;;;5050622;28;20177;-51
2022/02/01 05:36:04;;;;;;;20.05;11.65;;;2.80;99.90;;;;;;5050678;28;20209;-53
2022/02/01 05:38:30;;;;;;;16.10;10.18;;;2.80;99.90;;;;;;5047365;28;20193;-57
2022/02/01 05:40:55;;;;;;;18.58;10.90;;;2.80;99.90;;;;;;5049599;28;20174;-55
2022/02/01 05:43:26;;;;;;;19.90;10.83;;;2.80;99.90;;;;;;5052186;28;20197;-55
2022/02/01 05:45:54;;;;;;;15.20;9.23;;;2.80;99.90;;;;;;5059169;28;20188;-54
2022/02/01 05:48:20;;;;;;;18.50;11.30;;;2.80;99.90;;;;;;5069517;28;20202;-52
2022/02/01 05:50:50;;;;;;;16.20;8.93;;;2.80;99.90;;;;;;5061221;28;20188;-54
2022/02/01 05:53:16;;;;;;;18.10;10.63;;;2.80;99.90;;;;;;5064771;28;20312;-55
2022/02/01 05:55:42;;;;;;;17.50;10.00;;;2.80;99.90;;;;;;5066756;28;20182;-55
2022/02/01 05:58:08;;;;;;;16.97;10.30;;;2.90;99.90;;;;;;5053987;28;20186;-53
2022/02/01 06:00:34;;;;;;;20.43;10.73;;;2.90;99.90;;;;;;5062385;28;20525;-55
2022/02/01 06:03:00;;;;;;;15.70;8.73;;;2.90;99.90;;;;;;5064255;28;20177;-55
2022/02/01 06:05:27;;;;;;;16.05;9.63;;;2.90;99.90;;;;;;5062580;28;20185;-55
2022/02/01 06:07:53;;;;;;;16.00;9.95;;;2.90;99.90;;;;;;5050535;28;20285;-54
2022/02/01 06:10:19;;;;;;;17.23;9.97;;;3.00;99.90;;;;;;5049159;28;20655;-55
2022/02/01 06:12:46;;;;;;;15.90;9.47;;;3.00;99.90;;;;;;5048573;28;20269;-56
2022/02/01 06:15:13;;;;;;;18.15;9.57;;;2.90;99.90;;;;;;5049851;28;20171;-54
2022/02/01 06:17:39;;;;;;;16.48;9.23;;;2.90;99.90;;;;;;5048505;28;20330;-52
2022/02/01 06:20:06;;;;;;;15.73;8.53;;;2.90;99.90;;;;;;5050306;28;20253;-52
2022/02/01 06:22:32;;;;;;;16.60;9.35;;;2.90;99.90;;;;;;5049070;28;20189;-54
2022/02/01 06:24:58;;;;;;;15.77;8.90;;;2.90;99.90;;;;;;5049870;28;20667;-57
2022/02/01 06:27:24;;;;;;;14.18;9.00;;;2.80;99.90;;;;;;5051389;28;20194;-54
2022/02/01 06:29:50;;;;;;;12.77;8.50;;;2.80;99.90;;;;;;5053689;28;20364;-56
2022/02/01 06:32:16;;;;;;;13.93;8.47;;;2.90;99.90;;;;;;5050952;28;20294;-52
2022/02/01 06:34:42;;;;;;;16.70;9.07;;;2.90;99.90;;;;;;5061321;28;20423;-51
2022/02/01 06:37:08;;;;;;;18.63;9.10;;;2.90;99.90;;;;;;5065196;28;20880;-55
2022/02/01 06:39:34;;;;;;;19.77;9.27;;;2.80;99.90;;;;;;5053214;28;20436;-55
2022/02/01 06:41:59;;;;;;;12.43;7.90;;;2.80;99.90;;;;;;5056922;28;20185;-56
2022/02/01 06:44:25;;;;;;;15.00;8.63;;;2.80;99.90;;;;;;5062420;28;20190;-53
2022/02/01 06:46:51;;;;;;;18.40;9.30;;;2.80;99.90;;;;;;5052993;28;20309;-53
2022/02/01 06:49:16;;;;;;;12.00;8.80;;;2.80;99.90;;;;;;5043273;28;20575;-54
2022/02/01 06:51:42;;;;;;;15.97;8.50;;;2.80;99.90;;;;;;5049627;28;20668;-53
2022/02/01 06:54:09;;;;;;;14.37;7.87;;;2.80;99.90;;;;;;5049731;28;20222;-56
2022/02/01 06:56:34;;;;;;;13.70;7.85;;;2.80;99.90;;;;;;5048949;28;20428;-54
2022/02/01 06:59:01;;;;;;;14.83;9.00;;;2.80;99.90;;;;;;5050909;28;20194;-56
2022/02/01 07:01:28;;;;;;;13.30;8.05;;;2.80;99.90;;;;;;5050598;28;20177;-55
2022/02/01 07:03:53;;;;;;;13.95;8.23;;;2.90;99.90;;;;;;5051461;28;20242;-54
2022/02/01 07:06:19;;;;;;;11.40;7.27;;;2.80;99.90;;;;;;5049073;28;20834;-53
2022/02/01 07:08:47;;;;;;;15.02;8.63;;;2.80;99.90;;;;;;5048005;28;20495;-53
2022/02/01 07:11:13;;;;;;;12.55;7.22;;;2.80;99.90;;;;;;5048123;28;20273;-55
2022/02/01 07:13:40;;;;;;;13.90;8.07;;;2.90;99.90;;;;;;5049842;28;20193;-56
2022/02/01 07:16:07;;;;;;;12.82;8.13;;;2.90;99.90;;;;;;5053905;28;20622;-55
2022/02/01 07:18:32;;;;;;;14.45;8.00;;;2.90;99.90;;;;;;5056585;28;20173;-51
2022/02/01 07:20:58;;;;;;;13.00;7.67;;;2.80;99.90;;;;;;5064525;28;20178;-52
2022/02/01 07:23:26;;;;;;;12.60;7.80;;;2.80;99.90;;;;;;5064590;28;20299;-54
2022/02/01 07:25:52;;;;;;;14.70;9.20;;;2.60;99.90;;;;;;5055073;28;20190;-52
2022/02/01 07:28:19;;;;;;;12.75;7.25;;;2.40;99.90;;;;;;5047745;28;20275;-53
2022/02/01 07:30:45;;;;;;;13.95;9.10;;;2.30;99.90;;;;;;5051149;28;20186;-56
2022/02/01 07:33:12;;;;;;;14.10;8.43;;;2.40;99.90;;;;;;5052003;28;20182;-56
2022/02/01 07:35:38;;;;;;;14.55;9.00;;;2.30;99.90;;;;;;5063713;28;20837;-50
2022/02/01 07:38:06;;;;;;;17.58;9.20;;;2.30;99.90;;;;;;5051379;28;20558;-54
2022/02/01 07:40:33;;;;;;;17.52;9.60;;;2.30;99.90;;;;;;5064860;28;20178;-53
2022/02/01 07:42:58;;;;;;;15.18;9.07;;;2.20;99.90;;;;;;5063570;28;20209;-52
2022/02/01 07:45:28;;;;;;;21.23;9.70;;;2.20;99.90;;;;;;5064353;28;20261;-53
2022/02/01 07:47:58;;;;;;;18.33;10.32;;;2.10;99.90;;;;;;5051050;28;20210;-56
2022/02/01 07:50:24;;;;;;;16.23;9.02;;;2.10;99.90;;;;;;5051672;28;20211;-56
2022/02/01 07:52:50;;;;;;;20.25;10.25;;;2.00;99.90;;;;;;5051875;28;20341;-57
2022/02/01 07:55:16;;;;;;;18.70;11.93;;;2.00;99.90;;;;;;5055772;28;20264;-56
2022/02/01 07:57:41;;;;;;;22.87;11.80;;;2.00;99.90;;;;;;5065374;28;20189;-53
2022/02/01 08:00:08;;;;;;;21.27;11.00;;;2.10;99.90;;;;;;5053318;28;20178;-55
2022/02/01 08:02:35;;;;;;;17.70;10.23;;;2.10;99.90;;;;;;5060986;28;20186;-54
2022/02/01 08:05:01;;;;;;;19.02;10.20;;;2.00;99.90;;;;;;5050627;28;20179;-56
2022/02/01 08:07:27;;;;;;;17.00;10.80;;;2.00;99.90;;;;;;5051493;28;20252;-50
2022/02/01 08:09:57;;;;;;;20.33;9.63;;;2.10;99.90;;;;;;5051534;28;20178;-52
2022/02/01 08:17:46;;;;;;;13.63;8.87;;;2.30;99.90;;;;;;5050661;28;20194;-53
2022/02/01 08:20:15;;;;;;;13.48;9.00;;;2.30;99.90;;;;;;5064544;28;20186;-53
2022/02/01 08:25:13;;;;;;;12.00;8.80;;;2.30;99.90;;;;;;5063105;28;20233;-49
2022/02/01 08:27:40;;;;;;;13.32;7.95;;;2.30;99.90;;;;;;5071372;28;20554;-55
2022/02/01 08:30:11;;;;;;;15.88;9.25;;;2.40;99.90;;;;;;5056141;28;22161;-55
2022/02/01 08:32:37;;;;;;;12.30;8.70;;;2.50;99.90;;;;;;5066363;28;20173;-50
2022/02/01 08:35:04;;;;;;;13.55;8.00;;;2.60;99.90;;;;;;5071618;28;20169;-55
2022/02/01 08:37:29;;;;;;;12.05;7.57;;;2.70;99.90;;;;;;5053726;28;20190;-53
2022/02/01 08:39:55;;;;;;;12.20;7.43;;;2.70;99.90;;;;;;5052315;28;20194;-52
2022/02/01 08:42:20;;;;;;;13.10;7.30;;;2.70;99.90;;;;;;5049432;28;20561;-52
2022/02/01 08:44:46;;;;;;;12.87;7.13;;;2.80;99.90;;;;;;5045339;28;20201;-52
2022/02/01 08:47:13;;;;;;;17.37;8.80;;;2.80;99.90;;;;;;5063459;28;20205;-52
2022/02/01 08:49:41;;;;;;;10.93;7.65;;;2.90;99.90;;;;;;5061834;28;20417;-52
2022/02/01 08:52:11;;;;;;;13.95;7.93;;;3.00;99.90;;;;;;5064530;28;20188;-50
2022/02/01 08:54:38;;;;;;;12.20;7.50;;;3.10;99.90;;;;;;5071267;28;20173;-56
2022/02/01 08:57:21;;;;;;;14.35;7.80;;;3.10;99.90;;;;;;5067097;28;20199;-56
2022/02/01 08:59:48;;;;;;;12.57;8.07;;;3.20;99.90;;;;;;5071058;28;20205;-50
2022/02/01 09:02:16;;;;;;;14.35;7.55;;;3.20;99.90;;;;;;5055114;28;20251;-53
2022/02/01 09:04:42;;;;;;;14.27;8.15;;;3.20;99.90;;;;;;5058729;28;20216;-54
2022/02/01 09:07:08;;;;;;;13.37;7.13;;;3.30;99.90;;;;;;5056986;28;20291;-52
2022/02/01 09:09:33;;;;;;;15.50;6.73;;;3.30;99.90;;;;;;5067074;28;20629;-54
2022/02/01 09:11:59;;;;;;;11.97;7.00;;;3.40;99.90;;;;;;5063984;28;20226;-50
2022/02/01 09:14:25;;;;;;;13.13;6.72;;;3.40;99.90;;;;;;5061028;28;20268;-51
2022/02/01 09:16:52;;;;;;;10.23;6.00;;;3.40;99.90;;;;;;5060374;28;20217;-52
2022/02/01 09:19:17;;;;;;;10.10;6.45;;;3.50;99.90;;;;;;5053422;28;20429;-52
2022/02/01 09:21:44;;;;;;;10.27;5.80;;;3.50;99.90;;;;;;5051415;28;20175;-58
2022/02/01 09:24:10;;;;;;;11.93;6.18;;;3.50;99.90;;;;;;5050560;28;20511;-52
2022/02/01 09:26:36;;;;;;;9.52;5.50;;;3.60;99.90;;;;;;5057032;28;20182;-51
2022/02/01 09:29:02;;;;;;;14.75;5.70;;;3.60;99.90;;;;;;5065271;28;20193;-51
2022/02/01 09:31:28;;;;;;;9.52;5.90;;;3.60;99.90;;;;;;5068665;28;20234;-49
2022/02/01 09:33:53;;;;;;;9.17;5.80;;;3.70;99.90;;;;;;5070027;28;20754;-52
2022/02/01 09:36:22;;;;;;;10.40;5.27;;;3.70;99.90;;;;;;5069735;28;20186;-55
2022/02/01 09:38:49;;;;;;;12.18;6.18;;;3.70;99.90;;;;;;5056784;28;20606;-51
2022/02/01 09:41:15;;;;;;;8.63;5.45;;;3.70;99.90;;;;;;5047620;28;20183;-53
2022/02/01 09:43:41;;;;;;;9.47;5.20;;;3.80;99.90;;;;;;5041762;28;20182;-53
2022/02/01 09:46:06;;;;;;;9.20;4.50;;;3.80;99.90;;;;;;5066631;28;20543;-51
2022/02/01 09:48:32;;;;;;;8.80;4.63;;;3.90;99.90;;;;;;5070060;28;20194;-52
2022/02/01 09:50:58;;;;;;;8.48;4.70;;;3.80;99.90;;;;;;5068097;28;20636;-56
2022/02/01 09:53:23;;;;;;;7.27;3.87;;;3.80;99.90;;;;;;5062764;28;20218;-54
2022/02/01 09:55:49;;;;;;;7.30;4.00;;;3.90;99.90;;;;;;5049067;28;20186;-54
2022/02/01 09:58:15;;;;;;;7.95;4.07;;;3.90;99.90;;;;;;5049144;28;20178;-54
2022/02/01 10:00:46;;;;;;;7.15;3.33;;;4.00;99.90;;;;;;5049253;28;20178;-52
2022/02/01 10:03:16;;;;;;;8.75;4.10;;;4.10;99.90;;;;;;5049466;28;20163;-51
2022/02/01 10:05:43;;;;;;;8.40;3.72;;;4.20;99.90;;;;;;5048721;28;20220;-52
2022/02/01 10:08:09;;;;;;;8.60;4.45;;;4.20;99.90;;;;;;5049276;28;20191;-52
2022/02/01 10:10:34;;;;;;;7.27;4.10;;;4.10;99.90;;;;;;5048059;28;20220;-54
2022/02/01 10:13:08;;;;;;;7.57;3.77;;;4.10;99.90;;;;;;5046270;28;20190;-50
2022/02/01 10:15:34;;;;;;;6.43;3.63;;;4.20;99.90;;;;;;5051578;28;20189;-56
2022/02/01 10:18:03;;;;;;;10.18;4.60;;;4.30;99.90;;;;;;5049958;28;20320;-52
2022/02/01 10:20:41;;;;;;;6.90;4.18;;;4.40;99.90;;;;;;5045897;28;20257;-56
2022/02/01 10:23:27;;;;;;;5.88;4.00;;;4.50;99.90;;;;;;5047170;28;20496;-53
2022/02/01 10:26:08;;;;;;;8.60;3.80;;;4.50;99.90;;;;;;5046151;28;20186;-52
2022/02/01 10:31:48;;;;;;;7.13;3.38;;;4.80;99.90;;;;;;5060040;28;20204;-54
2022/02/01 10:37:03;;;;;;;7.95;4.00;;;5.00;99.90;;;;;;5062933;28;20214;-52
2022/02/01 10:39:31;;;;;;;7.25;3.55;;;5.10;99.90;;;;;;5049561;28;20973;-52
2022/02/01 10:42:02;;;;;;;5.38;2.90;;;5.10;99.90;;;;;;5049649;28;20205;-55
2022/02/01 10:44:45;;;;;;;8.18;2.80;;;5.10;99.90;;;;;;5049485;28;20214;-55
2022/02/01 10:47:14;;;;;;;9.18;3.55;;;5.10;99.90;;;;;;5049419;28;20264;-53
2022/02/01 10:49:40;;;;;;;9.75;3.15;;;5.10;99.90;;;;;;5052483;28;20220;-52
2022/02/01 10:52:08;;;;;;;11.63;3.70;;;5.10;99.90;;;;;;5053582;28;20530;-54
2022/02/01 10:54:36;;;;;;;11.18;3.17;;;5.10;99.90;;;;;;5053727;28;20517;-55
2022/02/01 10:57:03;;;;;;;11.95;3.70;;;4.90;99.90;;;;;;5053508;28;20217;-51
2022/02/01 10:59:29;;;;;;;4.53;2.60;;;4.90;99.90;;;;;;5053375;28;20178;-50
2022/02/01 11:01:58;;;;;;;7.93;2.90;;;4.90;99.90;;;;;;5053289;28;20186;-49
2022/02/01 11:04:24;;;;;;;8.70;3.70;;;4.80;99.90;;;;;;5053178;28;20182;-53
2022/02/01 11:06:51;;;;;;;6.32;2.85;;;4.80;99.90;;;;;;5053025;28;20240;-50
2022/02/01 11:09:21;;;;;;;5.93;2.63;;;4.70;99.90;;;;;;5052972;28;20179;-51
2022/02/01 11:11:55;;;;;;;9.20;2.47;;;4.70;99.90;;;;;;5052910;28;20224;-54
2022/02/01 11:14:23;;;;;;;5.82;2.80;;;4.80;99.90;;;;;;5053109;28;20173;-51
2022/02/01 11:16:49;;;;;;;6.85;2.58;;;4.90;99.90;;;;;;5055877;28;20299;-51
2022/02/01 11:19:14;;;;;;;5.80;2.83;;;4.90;99.90;;;;;;5059696;28;20198;-53
2022/02/01 11:21:43;;;;;;;6.50;2.87;;;5.00;99.90;;;;;;5053215;28;20182;-51
2022/02/01 11:24:36;;;;;;;7.97;2.83;;;5.20;99.90;;;;;;5053226;28;20227;-51
2022/02/01 11:27:13;;;;;;;5.88;2.60;;;5.30;99.90;;;;;;5049872;28;20537;-48
2022/02/01 11:30:01;;;;;;;5.82;2.65;;;5.30;99.90;;;;;;5052913;28;20186;-53
2022/02/01 11:32:34;;;;;;;7.10;2.45;;;5.20;99.90;;;;;;5052807;28;20534;-53
2022/02/01 11:35:02;;;;;;;6.97;2.80;;;5.20;99.90;;;;;;5052603;28;20579;-57
2022/02/01 11:37:28;;;;;;;9.82;3.42;;;5.10;99.90;;;;;;5052483;28;20170;-54
2022/02/01 11:39:54;;;;;;;5.50;2.23;;;4.90;99.90;;;;;;5052335;28;20845;-54
2022/02/01 11:42:22;;;;;;;8.05;2.72;;;4.90;99.90;;;;;;5032818;28;20270;-53
2022/02/01 11:44:59;;;;;;;7.93;2.75;;;4.90;99.90;;;;;;5046391;28;20187;-54
2022/02/01 11:47:36;;;;;;;4.90;2.70;;;4.90;99.90;;;;;;5049766;28;20198;-50
2022/02/01 11:50:12;;;;;;;8.55;2.70;;;4.80;99.90;;;;;;5050090;28;20178;-53
2022/02/01 11:52:48;;;;;;;5.13;2.72;;;4.80;99.90;;;;;;5048938;28;21028;-52
2022/02/01 11:55:16;;;;;;;4.63;2.25;;;4.90;99.90;;;;;;5048406;28;20174;-52
2022/02/01 11:57:49;;;;;;;6.65;2.63;;;4.80;99.90;;;;;;5051268;28;20232;-54
2022/02/01 12:00:18;;;;;;;5.88;3.08;;;4.90;99.90;;;;;;5048015;28;20529;-53
2022/02/01 12:02:56;;;;;;;7.25;2.83;;;4.90;99.90;;;;;;5050891;28;20522;-52
2022/02/01 12:05:34;;;;;;;6.15;2.22;;;4.90;99.90;;;;;;5049382;28;20181;-53
2022/02/01 12:08:10;;;;;;;8.65;2.58;;;4.90;99.90;;;;;;5050401;28;20194;-51
2022/02/01 12:10:44;;;;;;;6.82;2.50;;;5.00;99.90;;;;;;5047891;28;20221;-54
2022/02/01 12:13:12;;;;;;;5.63;2.17;;;5.00;99.90;;;;;;5048214;28;20724;-49
2022/02/01 12:15:40;;;;;;;9.05;3.00;;;5.00;99.90;;;;;;5054273;28;21055;-53
2022/02/01 12:18:15;;;;;;;5.55;2.50;;;5.00;99.90;;;;;;5057393;28;20654;-55
2022/02/01 12:20:44;;;;;;;6.75;3.15;;;5.00;99.90;;;;;;5063059;28;20189;-52
2022/02/01 12:23:17;;;;;;;7.45;2.53;;;5.10;99.90;;;;;;5065349;28;20251;-49
2022/02/01 12:25:43;;;;;;;12.77;3.97;;;5.10;99.90;;;;;;5062500;28;20198;-51
2022/02/01 12:28:17;;;;;;;6.23;2.50;;;5.10;99.90;;;;;;5064918;28;20205;-52
2022/02/01 12:30:43;;;;;;;5.88;2.78;;;5.10;99.90;;;;;;5051251;28;20182;-51
2022/02/01 12:33:19;;;;;;;4.95;2.60;;;5.20;99.90;;;;;;5064302;28;20273;-51
2022/02/01 12:35:45;;;;;;;9.38;2.70;;;5.20;99.90;;;;;;5071793;28;20180;-49
2022/02/01 12:38:20;;;;;;;4.57;2.70;;;5.40;99.90;;;;;;5056436;28;20189;-52
2022/02/01 12:41:00;;;;;;;3.92;2.50;;;5.50;99.90;;;;;;5071360;28;20201;-49
2022/02/01 12:43:30;;;;;;;6.72;2.42;;;5.50;99.90;;;;;;5071223;28;20205;-52
2022/02/01 12:48:30;;;;;;;5.82;2.30;;;5.30;99.90;;;;;;5068046;28;20237;-49
2022/02/01 12:50:58;;;;;;;5.25;2.63;;;5.10;99.90;;;;;;5060713;28;20252;-54
2022/02/01 12:53:25;;;;;;;4.43;2.47;;;5.00;99.90;;;;;;5067646;28;20222;-48
2022/02/01 12:55:50;;;;;;;5.18;2.65;;;5.20;99.90;;;;;;5051268;28;20194;-52
2022/02/01 12:58:17;;;;;;;5.50;2.60;;;5.20;99.90;;;;;;5066319;28;20788;-52
2022/02/01 13:00:48;;;;;;;2.60;2.28;;;5.30;99.90;;;;;;5044897;28;20541;-50
2022/02/01 13:03:14;;;;;;;3.42;1.83;;;5.10;99.90;;;;;;5049989;28;20181;-52
2022/02/01 13:05:40;;;;;;;8.80;2.30;;;5.30;99.90;;;;;;5059448;28;20182;-51
2022/02/01 13:21:00;;;;;;;3.93;2.10;;;5.30;99.90;;;;;;5070121;28;20231;-52
2022/02/01 13:23:58;;;;;;;3.35;2.40;;;5.20;99.90;;;;;;5070800;28;20190;-53
2022/02/01 13:26:29;;;;;;;3.25;2.38;;;5.30;99.90;;;;;;5044017;28;20867;-54
2022/02/01 13:29:06;;;;;;;5.43;2.55;;;5.50;99.90;;;;;;5057957;28;20184;-54
2022/02/01 13:31:33;;;;;;;6.75;2.58;;;5.70;99.90;;;;;;5069990;28;20203;-52
2022/02/01 13:34:04;;;;;;;4.18;2.10;;;5.90;99.90;;;;;;5069993;28;20645;-56
2022/02/01 13:36:32;;;;;;;3.75;2.95;;;6.40;99.90;;;;;;5056098;28;20205;-55
2022/02/01 13:39:00;;;;;;;4.50;2.80;;;6.50;99.90;;;;;;5070128;28;20204;-56
2022/02/01 13:41:29;;;;;;;3.40;3.10;;;6.40;99.90;;;;;;5068258;28;20257;-53
2022/02/01 13:44:00;;;;;;;5.43;3.20;;;6.00;99.90;;;;;;5070494;28;20255;-62
2022/02/01 13:46:28;;;;;;;4.28;2.95;;;5.70;99.90;;;;;;5070111;28;20182;-62
2022/02/01 13:49:04;;;;;;;4.60;2.90;;;5.50;99.90;;;;;;5070011;28;20280;-61
2022/02/01 13:51:31;;;;;;;5.20;3.00;;;5.40;99.90;;;;;;5069935;28;20193;-62
2022/02/01 13:54:01;;;;;;;5.85;3.08;;;5.30;99.90;;;;;;5058209;28;20307;-61
2022/02/01 13:56:29;;;;;;;5.28;3.05;;;5.20;99.90;;;;;;5051376;28;20186;-62
2022/02/01 13:59:09;;;;;;;4.85;2.70;;;5.10;99.90;;;;;;5048637;28;20209;-61
2022/02/01 14:01:43;;;;;;;3.45;3.10;;;5.00;99.90;;;;;;5052349;28;20271;-62
2022/02/01 14:04:29;;;;;;;4.78;2.92;;;5.00;99.90;;;;;;5049506;28;20182;-62
2022/02/01 14:10:06;;;;;;;3.00;2.70;;;5.00;99.90;;;;;;5069999;28;20179;-62
2022/02/01 14:26:27;;;;;;;6.30;2.80;;;4.40;99.90;;;;;;5042053;28;20277;-63
2022/02/01 14:29:00;;;;;;;4.72;2.85;;;4.30;99.90;;;;;;5049510;28;20201;-63
2022/02/01 14:34:15;;;;;;;3.38;2.40;;;4.20;99.90;;;;;;5052120;28;20235;-62
2022/02/01 14:36:42;;;;;;;3.00;2.53;;;4.20;99.90;;;;;;5051725;28;20166;-59
2022/02/01 14:44:47;;;;;;;6.00;2.92;;;4.10;99.90;;;;;;5050724;28;20188;-62
2022/02/01 14:47:22;;;;;;;4.05;2.60;;;4.10;99.90;;;;;;5049224;28;20534;-63
2022/02/01 14:49:49;;;;;;;3.15;2.65;;;4.10;99.90;;;;;;5048807;28;20247;-64
2022/02/01 14:52:17;;;;;;;4.65;2.88;;;4.20;99.90;;;;;;5048575;28;20263;-64
2022/02/01 14:54:49;;;;;;;2.90;2.60;;;4.30;99.90;;;;;;5047668;28;20170;-63